Terminal Aerodrome Forecast
Issued by NWS Central Illinois

Home | Current Version | Previous Version | Text Only | Print | Product List | Glossary On
Versions: 1 2 3 4 5 6 7 8 9 10 11 12 13 14 15 16 17 18 19
000
FTUS43 KILX 272339
TAFPIA
TAF
KPIA 272339Z 2800/2824 27005KT P6SM SCT250
     FM280200 25004KT P6SM SCT150
     FM280800 32006KT P6SM VCSH BKN040
     FM281200 32009KT P6SM SCT015 BKN025
     FM281600 34010G15KT P6SM SCT015 OVC025=

USA.gov is the U.S. government's official web portal to all federal, state and local government web resources and services.